Kapalua-West, HI

08:16 AM HST am 30. Mai 2015 (GMT -1000)
Lahaina | | Change Station
CLOSE
Current Station
Flughafen
Location: Lahaina,
Höhe: 256 ft
Wetterstationen in der Umgebung

Höhe 256 ft 20.96 °N, 156.67 °W | Updated 31 minutes ago

Partly Cloudy
Teils Wolkig
77 °F
gefühlte 77 °F
N
0
Wind Wechselnd Wind aus Nord

Heute
Max. -- | schwach -- °F
--% Regenrisiko
Gestern
Max. -- | schwach -- °F
Precip. -- inch
5:45 AM 7:03 PM
Zweites Viertel, 91% visible
Druck 29.98 inch
Sichtweite 15.0 Meilen
Wolken Few 2500 ft
Taupunkt 64 °F
Feuchtigkeit 65%
Regen 0.00 inch
Schneehöhe Nicht verfügbar..
UV 2 von 12
Pollen Nicht verfügbar..
Luftqualität Nicht verfügbar..
Flu Activity Local Activity
METAR PHJH 301745Z 00000KT 15SM FEW025 25/18 A2998

More Conditions Fewer Conditions

Druck 29.98 inch
Sichtweite 15.0 Meilen
Wolken Few 2500 ft
Taupunkt 64 °F
Feuchtigkeit 65%
Regen 0.00 inch
Schneehöhe Nicht verfügbar..
UV 2 von 12
Pollen Nicht verfügbar..
Luftqualität Nicht verfügbar..
Flu Activity Local Activity
METAR PHJH 301745Z 00000KT 15SM FEW025 25/18 A2998

More Conditions Fewer Conditions

10-Day Weather Forecast

Almanac

Astronomie

May. 30, 2015 Aufgang Untergang
Genaue Zeit
Bürgerliche Dämmerung
Nautische Dämmerung
Astronomische Dämmerung
Mond
Länge des sichtbaren Lichts
Tageslänge
Tomorrow will be .
, % of the Moon is Illuminated

Heutige Rekorde

State Highs State Lows

Community

WunderPhotos

Upload Photos

1,825,595 Fotos hochgeladen!

WunderBlogs® & News

Nearby

Luftqualität

  Luftqualität LQ Index Schadstoff
Not available.

Schneehöhe

Station Depth Höhe

Erdbebenaktivität

Stadt Distance Mag. Time & Date
Minimum magnitude displayed is 2.5.

küstennahe Wassertemperaturen

Ort Temperatur

Stations

Wetterstationen in der Umgebung

Stationsstandort Temp. Windchill Taupunkt Feuchtigkeit Wind Precip. Höhe Aktualisiert Art